createdAt,value
2023-01-28T00:01:40.982Z,2.01
2023-01-28T00:04:46.221Z,2.26
2023-01-28T00:07:52.514Z,2.13
2023-01-28T00:11:02.214Z,2.32
2023-01-28T00:14:07.587Z,2.20
2023-01-28T00:17:13.245Z,2.33
2023-01-28T00:20:19.440Z,2.38
2023-01-28T00:23:25.662Z,2.12
2023-01-28T00:26:31.533Z,2.17
2023-01-28T00:29:37.315Z,2.24
2023-01-28T00:32:44.905Z,2.19
2023-01-28T00:36:01.835Z,2.18
2023-01-28T00:39:07.011Z,2.20
2023-01-28T00:42:13.231Z,2.15
2023-01-28T00:45:18.714Z,2.36
2023-01-28T00:48:24.879Z,2.60
2023-01-28T00:51:30.680Z,2.63
2023-01-28T00:54:36.813Z,2.67
2023-01-28T00:57:42.128Z,2.72
2023-01-28T01:00:47.943Z,2.62
2023-01-28T01:04:03.224Z,2.62
2023-01-28T01:07:09.427Z,2.55
2023-01-28T01:10:18.397Z,2.59
2023-01-28T01:13:23.892Z,2.79
2023-01-28T01:16:36.623Z,2.78
2023-01-28T01:19:41.839Z,2.71
2023-01-28T01:22:48.267Z,2.80
2023-01-28T01:25:54.393Z,2.71
2023-01-28T01:28:59.504Z,2.53
2023-01-28T01:32:05.779Z,2.51
2023-01-28T01:35:11.399Z,2.61
2023-01-28T01:38:18.148Z,2.58
2023-01-28T01:41:30.201Z,2.55
2023-01-28T01:45:07.904Z,2.52
2023-01-28T01:48:24.767Z,2.50
2023-01-28T01:51:33.626Z,2.56
2023-01-28T01:54:41.842Z,2.65
2023-01-28T01:57:49.328Z,2.58
2023-01-28T02:00:55.117Z,2.61
2023-01-28T02:04:00.820Z,2.68
2023-01-28T02:07:09.230Z,2.67
2023-01-28T02:10:18.926Z,2.64
2023-01-28T02:13:31.267Z,2.62
2023-01-28T02:16:39.233Z,2.70
2023-01-28T02:19:58.983Z,2.65
2023-01-28T02:23:29.247Z,2.73
2023-01-28T02:26:50.651Z,2.76
2023-01-28T02:29:59.165Z,2.80
2023-01-28T02:33:12.958Z,2.63
2023-01-28T02:36:51.110Z,2.63
2023-01-28T02:40:05.559Z,2.75
2023-01-28T02:43:11.352Z,2.67
2023-01-28T02:46:44.381Z,2.67
2023-01-28T02:49:55.629Z,2.69
2023-01-28T02:53:44.360Z,2.80
2023-01-28T02:57:00.486Z,2.85
2023-01-28T03:00:18.741Z,2.92
2023-01-28T03:03:35.296Z,2.54
2023-01-28T03:06:48.874Z,2.70
2023-01-28T03:09:59.307Z,2.53
2023-01-28T03:13:23.396Z,2.39
2023-01-28T03:16:49.803Z,2.10
2023-01-28T03:20:13.739Z,1.92
2023-01-28T03:23:46.489Z,1.87
2023-01-28T03:27:33.258Z,2.14
2023-01-28T03:31:19.680Z,2.31
2023-01-28T03:34:49.504Z,2.24
2023-01-28T03:37:55.568Z,1.99
2023-01-28T03:41:04.302Z,1.78
2023-01-28T03:44:29.215Z,2.06
2023-01-28T03:47:37.073Z,2.12
2023-01-28T03:50:44.412Z,2.17
2023-01-28T03:53:50.272Z,2.15
2023-01-28T03:56:55.889Z,2.09
2023-01-28T04:00:01.783Z,2.17
2023-01-28T04:03:17.276Z,2.16
2023-01-28T04:06:43.056Z,2.15
2023-01-28T04:10:02.120Z,2.00
2023-01-28T04:13:26.576Z,2.18
2023-01-28T04:16:32.555Z,2.17
2023-01-28T04:19:38.936Z,2.22
2023-01-28T04:22:46.109Z,2.33
2023-01-28T04:25:53.394Z,2.31
2023-01-28T04:29:01.125Z,2.35
2023-01-28T04:32:06.951Z,2.08
2023-01-28T04:35:33.233Z,2.28
2023-01-28T04:38:45.905Z,2.26
2023-01-28T04:42:11.839Z,2.21
2023-01-28T04:45:50.616Z,2.33
2023-01-28T04:49:19.047Z,2.22
2023-01-28T04:52:46.540Z,2.11
2023-01-28T04:56:15.048Z,2.09
2023-01-28T04:59:21.693Z,2.05
2023-01-28T05:02:27.360Z,1.98
2023-01-28T05:05:33.116Z,2.02
2023-01-28T05:08:52.274Z,1.98
2023-01-28T05:11:58.145Z,1.75
2023-01-28T05:15:04.605Z,1.73
2023-01-28T05:18:10.546Z,1.81
2023-01-28T05:21:22.573Z,1.79
2023-01-28T05:24:36.510Z,1.69
2023-01-28T05:27:42.580Z,1.61
2023-01-28T05:30:48.442Z,1.57
2023-01-28T05:33:54.255Z,1.76
2023-01-28T05:37:01.309Z,1.78
2023-01-28T05:40:15.738Z,1.61
2023-01-28T05:43:23.031Z,1.56
2023-01-28T05:46:46.954Z,1.44
2023-01-28T05:50:15.821Z,1.52
2023-01-28T05:53:39.895Z,1.56
2023-01-28T05:56:47.840Z,1.37
2023-01-28T05:59:53.080Z,1.31
2023-01-28T06:02:58.470Z,1.41
2023-01-28T06:06:04.447Z,1.36
2023-01-28T06:09:10.633Z,1.31
2023-01-28T06:12:17.252Z,1.30
2023-01-28T06:15:38.777Z,1.51
2023-01-28T06:19:03.316Z,1.68
2023-01-28T06:22:08.961Z,1.70
2023-01-28T06:25:14.037Z,1.35
2023-01-28T06:28:19.323Z,1.30
2023-01-28T06:31:24.688Z,1.37
2023-01-28T06:34:30.123Z,1.30
2023-01-28T06:37:35.722Z,1.35
2023-01-28T06:40:41.232Z,1.25
2023-01-28T06:43:46.780Z,1.24
2023-01-28T06:46:52.361Z,1.41
2023-01-28T06:49:57.844Z,1.35
2023-01-28T06:53:03.578Z,1.42
2023-01-28T06:56:09.094Z,1.04
2023-01-28T06:59:14.657Z,1.04
2023-01-28T07:02:19.794Z,1.04
2023-01-28T07:05:25.357Z,1.16
2023-01-28T07:08:31.473Z,1.06
2023-01-28T07:11:37.325Z,1.05
2023-01-28T07:14:42.364Z,1.22
2023-01-28T07:17:47.603Z,1.31
2023-01-28T07:20:52.678Z,1.31
2023-01-28T07:23:58.166Z,1.38
2023-01-28T07:27:04.948Z,1.44
2023-01-28T07:30:11.233Z,1.47
2023-01-28T07:33:17.728Z,1.52
2023-01-28T07:36:23.189Z,1.66
2023-01-28T07:39:28.932Z,1.69
2023-01-28T07:42:34.032Z,1.69
2023-01-28T07:45:43.139Z,1.84
2023-01-28T07:48:48.596Z,1.92
2023-01-28T07:51:53.893Z,1.95
2023-01-28T07:54:59.467Z,2.05
2023-01-28T07:58:08.085Z,2.12
2023-01-28T08:01:14.793Z,2.12
2023-01-28T08:04:20.532Z,1.99
2023-01-28T08:07:26.098Z,2.17
2023-01-28T08:10:31.386Z,2.00
2023-01-28T08:13:36.971Z,2.34
2023-01-28T08:16:42.471Z,2.41
2023-01-28T08:19:48.217Z,2.46
2023-01-28T08:22:53.057Z,2.48
2023-01-28T08:25:59.290Z,2.49
2023-01-28T08:29:04.341Z,2.53
2023-01-28T08:32:10.622Z,2.60
2023-01-28T08:35:16.084Z,2.56
2023-01-28T08:38:21.625Z,2.62
2023-01-28T08:41:27.199Z,2.59
2023-01-28T08:44:32.375Z,2.69
2023-01-28T08:47:37.721Z,2.67
2023-01-28T08:50:43.839Z,2.68
2023-01-28T08:53:49.246Z,2.77
2023-01-28T08:56:54.492Z,2.81
2023-01-28T08:59:59.829Z,2.83
2023-01-28T09:03:06.378Z,2.87
2023-01-28T09:06:12.112Z,3.07
2023-01-28T09:09:17.283Z,3.18
2023-01-28T09:12:22.493Z,3.21
2023-01-28T09:15:27.949Z,3.31
2023-01-28T09:18:33.007Z,3.47
2023-01-28T09:21:40.771Z,3.63
2023-01-28T09:24:45.930Z,3.62
2023-01-28T09:27:51.149Z,3.72
2023-01-28T09:31:10.666Z,3.77
2023-01-28T09:34:15.809Z,3.95
2023-01-28T09:37:21.136Z,4.00
2023-01-28T09:40:38.961Z,4.09
2023-01-28T09:44:14.051Z,4.02
2023-01-28T09:47:33.016Z,4.21
2023-01-28T09:50:48.629Z,4.23
2023-01-28T09:53:58.828Z,4.39
2023-01-28T09:57:20.317Z,4.36
2023-01-28T10:00:42.089Z,4.36
2023-01-28T10:04:06.202Z,4.51
2023-01-28T10:07:39.916Z,4.59
2023-01-28T10:10:50.948Z,4.57
2023-01-28T10:14:14.934Z,4.48
2023-01-28T10:17:29.344Z,4.61
2023-01-28T10:20:43.459Z,4.67
2023-01-28T10:24:06.823Z,4.73
2023-01-28T10:27:24.120Z,4.94
2023-01-28T10:30:35.582Z,4.58
2023-01-28T10:33:41.521Z,4.74
2023-01-28T10:36:48.590Z,4.63
2023-01-28T10:39:59.540Z,4.79
2023-01-28T10:43:05.351Z,4.96
2023-01-28T10:46:16.425Z,5.11
2023-01-28T10:49:30.036Z,5.07
2023-01-28T10:52:35.545Z,4.92
2023-01-28T10:55:56.308Z,5.20
2023-01-28T10:59:05.173Z,5.29
2023-01-28T11:02:32.615Z,5.19
2023-01-28T11:05:37.886Z,5.32
2023-01-28T11:08:45.603Z,5.21
2023-01-28T11:11:50.940Z,5.34
2023-01-28T11:15:01.630Z,5.45
2023-01-28T11:18:28.724Z,5.30
2023-01-28T11:21:35.974Z,5.50
2023-01-28T11:24:43.431Z,5.56
2023-01-28T11:27:50.363Z,5.57
2023-01-28T11:30:59.306Z,5.47
2023-01-28T11:34:06.372Z,5.63
2023-01-28T11:37:18.921Z,5.55
2023-01-28T11:40:25.207Z,5.64
2023-01-28T11:43:32.164Z,5.57
2023-01-28T11:47:01.112Z,5.52
2023-01-28T11:50:30.667Z,5.66
2023-01-28T11:53:41.983Z,5.73
2023-01-28T11:57:15.921Z,5.93
2023-01-28T12:00:38.708Z,5.98
2023-01-28T12:03:49.548Z,6.06
2023-01-28T12:07:26.763Z,5.92
2023-01-28T12:11:08.454Z,5.86
2023-01-28T12:14:41.868Z,5.90
2023-01-28T12:18:16.710Z,6.12
2023-01-28T12:21:46.562Z,6.31
2023-01-28T12:25:01.004Z,6.30
2023-01-28T12:28:31.870Z,6.37
2023-01-28T12:31:51.978Z,6.53
2023-01-28T12:35:18.964Z,6.66
2023-01-28T12:38:38.135Z,6.57
2023-01-28T12:41:51.329Z,6.68
2023-01-28T12:45:16.821Z,6.62
2023-01-28T12:48:58.672Z,6.70
2023-01-28T12:52:09.702Z,6.54
2023-01-28T12:55:20.746Z,6.77
2023-01-28T12:58:36.028Z,6.72
2023-01-28T13:01:58.035Z,6.89
2023-01-28T13:05:13.620Z,7.13
2023-01-28T13:08:27.381Z,6.96
2023-01-28T13:11:36.847Z,7.07
2023-01-28T13:14:42.747Z,7.01
2023-01-28T13:17:59.679Z,7.12
2023-01-28T13:21:06.864Z,7.27
2023-01-28T13:24:15.677Z,7.23
2023-01-28T13:27:27.954Z,7.13
2023-01-28T13:30:36.674Z,7.14
2023-01-28T13:33:43.217Z,7.32
2023-01-28T13:36:49.538Z,7.17
2023-01-28T13:40:13.344Z,7.31
2023-01-28T13:43:37.819Z,7.59
2023-01-28T13:46:43.677Z,7.55
2023-01-28T13:49:59.421Z,7.44
2023-01-28T13:53:32.857Z,7.51
2023-01-28T13:56:38.199Z,7.50
2023-01-28T14:00:07.573Z,7.55
2023-01-28T14:03:23.378Z,7.38
2023-01-28T14:06:54.984Z,7.33
2023-01-28T14:10:41.456Z,7.58
2023-01-28T14:14:17.461Z,7.57
2023-01-28T14:17:42.667Z,7.51
2023-01-28T14:20:48.272Z,7.39
2023-01-28T14:23:56.860Z,7.37
2023-01-28T14:27:15.900Z,7.30
2023-01-28T14:30:48.225Z,7.19
2023-01-28T14:33:55.120Z,7.18
2023-01-28T14:37:08.683Z,7.10
2023-01-28T14:40:17.679Z,6.95
2023-01-28T14:43:26.783Z,6.93
2023-01-28T14:46:57.613Z,6.85
2023-01-28T14:50:12.126Z,6.87
2023-01-28T14:53:48.418Z,6.95
2023-01-28T14:57:05.515Z,6.96
2023-01-28T15:00:39.489Z,6.78
2023-01-28T15:03:46.476Z,6.74
2023-01-28T15:06:51.966Z,6.75
2023-01-28T15:10:15.060Z,6.74
2023-01-28T15:13:31.094Z,6.64
2023-01-28T15:16:36.558Z,6.62
2023-01-28T15:19:41.835Z,6.49
2023-01-28T15:22:48.197Z,6.67
2023-01-28T15:25:55.642Z,6.60
2023-01-28T15:29:00.994Z,6.40
2023-01-28T15:32:06.919Z,6.45
2023-01-28T15:35:14.472Z,6.37
2023-01-28T15:38:20.597Z,6.22
2023-01-28T15:41:34.265Z,6.17
2023-01-28T15:44:45.068Z,6.11
2023-01-28T15:47:50.875Z,6.08
2023-01-28T15:51:18.978Z,5.97
2023-01-28T15:54:25.079Z,5.87
2023-01-28T15:57:35.223Z,5.74
2023-01-28T16:00:40.623Z,5.76
2023-01-28T16:03:48.007Z,5.62
2023-01-28T16:06:55.390Z,5.60
2023-01-28T16:10:04.117Z,5.59
2023-01-28T16:13:42.729Z,5.51
2023-01-28T16:16:48.745Z,5.46
2023-01-28T16:20:01.868Z,5.38
2023-01-28T16:23:23.770Z,5.33
2023-01-28T16:26:31.401Z,5.21
2023-01-28T16:29:37.166Z,5.22
2023-01-28T16:32:43.060Z,5.15
2023-01-28T16:36:05.414Z,5.10
2023-01-28T16:39:13.464Z,5.01
2023-01-28T16:42:19.584Z,4.93
2023-01-28T16:45:25.866Z,4.80
2023-01-28T16:48:31.294Z,4.76
2023-01-28T16:51:40.922Z,4.74
2023-01-28T16:54:46.820Z,4.70
2023-01-28T16:57:54.881Z,4.65
2023-01-28T17:01:00.551Z,4.61
2023-01-28T17:04:11.911Z,4.54
2023-01-28T17:07:18.178Z,4.52
2023-01-28T17:10:23.854Z,4.52
2023-01-28T17:13:29.422Z,4.51
2023-01-28T17:16:35.047Z,4.37
2023-01-28T17:19:40.419Z,4.39
2023-01-28T17:22:46.269Z,4.47
2023-01-28T17:25:51.741Z,4.40
2023-01-28T17:28:57.898Z,4.43
2023-01-28T17:32:03.397Z,4.39
2023-01-28T17:35:09.389Z,4.36
2023-01-28T17:38:15.259Z,4.30
2023-01-28T17:41:21.421Z,4.27
2023-01-28T17:44:27.629Z,4.26
2023-01-28T17:47:33.376Z,4.24
2023-01-28T17:50:40.472Z,4.05
2023-01-28T17:53:51.379Z,3.90
2023-01-28T17:56:57.153Z,3.46
2023-01-28T18:00:02.665Z,3.51
2023-01-28T18:03:17.257Z,3.59
2023-01-28T18:06:23.121Z,3.67
2023-01-28T18:09:29.604Z,3.66
2023-01-28T18:12:35.255Z,3.49
2023-01-28T18:15:40.710Z,3.38
2023-01-28T18:18:48.090Z,3.37
2023-01-28T18:21:55.263Z,3.28
2023-01-28T18:25:01.073Z,3.41
2023-01-28T18:28:08.671Z,3.31
2023-01-28T18:31:14.000Z,3.25
2023-01-28T18:34:19.385Z,3.23
2023-01-28T18:37:24.812Z,3.36
2023-01-28T18:40:30.258Z,3.33
2023-01-28T18:43:36.096Z,3.11
2023-01-28T18:46:42.080Z,3.06
2023-01-28T18:49:47.726Z,2.98
2023-01-28T18:52:54.340Z,2.82
2023-01-28T18:56:04.964Z,2.89
2023-01-28T18:59:14.728Z,2.89
2023-01-28T19:02:20.270Z,2.85
2023-01-28T19:05:25.896Z,2.77
2023-01-28T19:08:31.523Z,2.70
2023-01-28T19:11:38.968Z,2.63
2023-01-28T19:14:44.329Z,2.44
2023-01-28T19:17:49.905Z,2.63
2023-01-28T19:20:55.250Z,2.54
2023-01-28T19:24:10.039Z,2.45
2023-01-28T19:27:15.142Z,2.50
2023-01-28T19:30:20.513Z,2.53
2023-01-28T19:33:25.991Z,2.53
2023-01-28T19:36:33.787Z,2.53
2023-01-28T19:39:39.341Z,2.62
2023-01-28T19:42:45.851Z,2.44
2023-01-28T19:46:06.272Z,2.38
2023-01-28T19:49:12.925Z,2.30
2023-01-28T19:52:18.364Z,2.42
2023-01-28T19:55:23.913Z,2.41
2023-01-28T19:58:29.743Z,2.36
2023-01-28T20:01:36.313Z,2.18
2023-01-28T20:04:54.843Z,2.05
2023-01-28T20:08:05.490Z,2.16
2023-01-28T20:11:16.637Z,2.06
2023-01-28T20:14:22.249Z,2.15
2023-01-28T20:17:28.922Z,2.15
2023-01-28T20:20:34.100Z,2.27
2023-01-28T20:23:39.873Z,1.96
2023-01-28T20:26:45.414Z,1.90
2023-01-28T20:29:50.751Z,1.96
2023-01-28T20:32:56.009Z,1.98
2023-01-28T20:36:02.781Z,2.05
2023-01-28T20:39:08.159Z,2.06
2023-01-28T20:42:13.618Z,2.02
2023-01-28T20:45:19.015Z,2.02
2023-01-28T20:48:23.981Z,1.80
2023-01-28T20:51:32.464Z,1.92
2023-01-28T20:54:39.094Z,2.18
2023-01-28T20:57:44.870Z,2.19
2023-01-28T21:00:50.565Z,2.11
2023-01-28T21:03:56.763Z,1.95
2023-01-28T21:07:02.490Z,1.84
2023-01-28T21:10:08.440Z,1.93
2023-01-28T21:13:15.306Z,2.06
2023-01-28T21:16:20.792Z,2.11
2023-01-28T21:19:25.859Z,1.91
2023-01-28T21:22:31.148Z,1.97
2023-01-28T21:25:36.251Z,1.92
2023-01-28T21:28:43.227Z,2.05
2023-01-28T21:31:48.659Z,1.85
2023-01-28T21:34:53.970Z,1.83
2023-01-28T21:37:59.272Z,1.62
2023-01-28T21:41:04.921Z,1.62
2023-01-28T21:44:12.222Z,1.59
2023-01-28T21:47:17.592Z,1.53
2023-01-28T21:50:23.593Z,1.54
2023-01-28T21:53:28.683Z,1.53
2023-01-28T21:56:34.035Z,1.56
2023-01-28T21:59:40.982Z,1.42
2023-01-28T22:02:46.570Z,1.48
2023-01-28T22:05:55.749Z,1.45
2023-01-28T22:09:01.310Z,1.51
2023-01-28T22:12:08.309Z,1.55
2023-01-28T22:15:13.545Z,1.41
2023-01-28T22:18:18.573Z,1.44
2023-01-28T22:21:23.875Z,1.41
2023-01-28T22:24:30.790Z,1.45
2023-01-28T22:27:36.003Z,1.38
2023-01-28T22:30:41.269Z,1.49
2023-01-28T22:33:46.566Z,1.56
2023-01-28T22:36:52.168Z,1.30
2023-01-28T22:39:57.639Z,1.26
2023-01-28T22:43:03.810Z,1.37
2023-01-28T22:46:10.269Z,1.53
2023-01-28T22:49:15.806Z,1.37
2023-01-28T22:52:21.217Z,1.27
2023-01-28T22:55:26.438Z,1.27
2023-01-28T22:58:32.441Z,1.42
2023-01-28T23:01:38.286Z,1.36
2023-01-28T23:04:46.115Z,1.25
2023-01-28T23:07:51.689Z,1.29
2023-01-28T23:11:00.056Z,1.06
2023-01-28T23:14:24.237Z,1.14
2023-01-28T23:17:47.824Z,0.93
2023-01-28T23:21:11.968Z,0.85
2023-01-28T23:24:21.273Z,0.89
2023-01-28T23:27:26.733Z,1.01
2023-01-28T23:30:32.142Z,1.02
2023-01-28T23:33:37.571Z,1.04
2023-01-28T23:36:43.353Z,1.08
2023-01-28T23:39:48.378Z,1.02
2023-01-28T23:42:55.389Z,0.74
2023-01-28T23:46:00.854Z,1.00
2023-01-28T23:49:06.819Z,1.08
2023-01-28T23:52:12.335Z,0.92
2023-01-28T23:55:18.035Z,0.52
2023-01-28T23:58:41.120Z,0.37
